Time;durP1;ratioP1;P1;durP2;ratioP2;P2;SDS_P1;SDS_P2;PMS_P1;PMS_P2;Temp;Humidity;BMP_temperature;BMP_pressure;BME280_temperature;BME280_humidity;BME280_pressure;Samples;Min_cycle;Max_cycle;Signal;HPM_P1;HPM_P2
2023/12/14 00:01:40;;;;;;;4.30;2.93;;;;;;;16.18;62.44;100675.53;10452298;28;20025;-56
2023/12/14 00:06:40;;;;;;;4.18;2.15;;;;;;;16.17;63.53;100687.31;10452398;28;20643;-56
2023/12/14 00:11:41;;;;;;;3.57;2.70;;;;;;;16.14;62.31;100698.59;10451754;28;20028;-56
2023/12/14 00:16:41;;;;;;;3.42;2.42;;;;;;;16.14;63.50;100706.63;10451801;28;20792;-56
2023/12/14 00:21:41;;;;;;;3.33;1.87;;;;;;;16.13;62.80;100710.38;10451447;28;20075;-57
2023/12/14 00:26:42;;;;;;;4.00;2.37;;;;;;;16.12;63.44;100738.19;10451610;28;20279;-57
2023/12/14 00:31:42;;;;;;;3.43;2.20;;;;;;;16.10;63.29;100737.66;10450856;28;20303;-56
2023/12/14 00:36:42;;;;;;;3.28;2.28;;;;;;;16.11;62.94;100747.31;10451385;28;20283;-57
2023/12/14 00:41:43;;;;;;;3.95;2.63;;;;;;;16.10;63.53;100753.69;10450745;28;20021;-57
2023/12/14 00:46:43;;;;;;;4.20;2.40;;;;;;;16.08;62.61;100759.34;10450831;28;20059;-56
2023/12/14 00:51:43;;;;;;;3.20;2.05;;;;;;;16.06;62.38;100771.38;10450366;28;20025;-56
2023/12/14 00:56:44;;;;;;;3.83;2.50;;;;;;;16.05;62.20;100788.50;10450307;28;20460;-56
2023/12/14 01:01:44;;;;;;;3.53;2.20;;;;;;;16.04;62.38;100794.94;10449976;28;20282;-57
2023/12/14 01:06:44;;;;;;;4.23;3.37;;;;;;;16.04;61.88;100792.28;10450187;28;20360;-56
2023/12/14 01:11:45;;;;;;;4.73;1.87;;;;;;;16.04;62.18;100802.97;10449925;28;20753;-57
2023/12/14 01:16:45;;;;;;;3.63;2.13;;;;;;;16.02;61.87;100805.13;10449952;28;20299;-55
2023/12/14 01:21:45;;;;;;;3.63;2.15;;;;;;;16.01;63.40;100820.38;10431711;28;20626;-56
2023/12/14 01:26:46;;;;;;;4.50;3.15;;;;;;;16.01;62.70;100830.28;10449790;28;20657;-56
2023/12/14 01:31:46;;;;;;;4.90;2.42;;;;;;;15.99;63.23;100838.56;10449053;28;20515;-55
2023/12/14 01:36:46;;;;;;;4.35;2.60;;;;;;;15.98;63.24;100844.16;10449598;28;20029;-57
2023/12/14 01:41:49;;;;;;;3.45;2.05;;;;;;;15.98;63.24;100855.69;10449390;28;20025;-57
2023/12/14 01:46:49;;;;;;;4.47;2.45;;;;;;;15.97;62.07;100863.97;10449441;28;20032;-56
2023/12/14 01:51:49;;;;;;;3.40;2.13;;;;;;;15.96;63.15;100881.09;10448972;28;20021;-55
2023/12/14 01:56:50;;;;;;;4.33;2.47;;;;;;;15.95;61.70;100876.81;10449268;28;20660;-56
2023/12/14 02:01:56;;;;;;;3.30;2.07;;;;;;;15.95;62.97;100882.97;10448712;28;20267;-55
2023/12/14 02:06:56;;;;;;;3.47;2.38;;;;;;;15.92;62.62;100880.84;10451732;28;20274;-57
2023/12/14 02:11:56;;;;;;;2.47;1.80;;;;;;;15.93;62.09;100895.81;10456534;28;20029;-56
2023/12/14 02:16:57;;;;;;;2.72;1.80;;;;;;;15.95;63.20;100919.59;10456735;28;20295;-56
2023/12/14 02:21:57;;;;;;;3.10;2.13;;;;;;;15.98;66.88;100927.91;10450321;28;20098;-57
2023/12/14 02:26:58;;;;;;;3.10;2.10;;;;;;;16.03;65.40;100935.91;10445059;28;20553;-57
2023/12/14 02:31:58;;;;;;;3.58;2.42;;;;;;;16.03;64.88;100938.56;10463456;28;20303;-56
2023/12/14 02:36:58;;;;;;;2.88;1.88;;;;;;;16.02;65.67;100949.53;10455675;28;20052;-57
2023/12/14 02:41:59;;;;;;;4.17;2.00;;;;;;;15.99;64.83;100958.91;10455748;28;20932;-57
2023/12/14 02:46:59;;;;;;;2.30;1.53;;;;;;;15.99;64.94;100974.16;10455145;28;20305;-56
2023/12/14 02:51:59;;;;;;;3.23;1.80;;;;;;;15.96;65.10;100974.69;10437369;28;20698;-56
2023/12/14 02:57:00;;;;;;;3.33;1.97;;;;;;;15.95;64.05;100986.47;10454671;28;20356;-55
2023/12/14 03:02:00;;;;;;;3.23;1.80;;;;;;;15.93;64.05;100991.28;10455080;28;20282;-57
2023/12/14 03:07:02;;;;;;;3.43;2.03;;;;;;;15.91;63.80;100998.78;10453202;28;20291;-56
2023/12/14 03:12:02;;;;;;;3.72;2.15;;;;;;;15.89;64.03;101004.41;10437004;28;21234;-55
2023/12/14 03:17:03;;;;;;;3.45;2.17;;;;;;;15.89;64.10;101011.63;10453539;28;20029;-55
2023/12/14 03:22:03;;;;;;;4.60;1.85;;;;;;;15.87;64.35;101019.13;10454075;28;20094;-57
2023/12/14 03:27:04;;;;;;;2.70;1.93;;;;;;;15.86;63.97;101020.16;10453627;28;20387;-56
2023/12/14 03:32:05;;;;;;;2.30;1.73;;;;;;;15.86;63.14;101014.81;10443805;28;20294;-55
2023/12/14 03:37:05;;;;;;;3.15;2.05;;;;;;;15.85;63.49;101014.00;10453275;28;20071;-55
2023/12/14 03:42:05;;;;;;;2.30;1.47;;;;;;;16.04;63.77;101015.06;10435376;28;20024;-54
2023/12/14 03:47:06;;;;;;;2.95;2.15;;;;;;;16.36;62.95;101019.28;10434885;28;20301;-56
2023/12/14 03:52:06;;;;;;;2.58;2.03;;;;;;;16.82;60.17;101038.66;10452976;28;20061;-56
2023/12/14 03:57:06;;;;;;;4.07;1.53;;;;;;;17.19;59.23;101032.81;10452382;28;20035;-57
2023/12/14 04:02:07;;;;;;;2.57;1.43;;;;;;;17.47;57.96;101036.63;10452792;28;20616;-56
2023/12/14 04:07:07;;;;;;;2.35;1.27;;;;;;;17.68;58.52;101039.16;10452225;28;20275;-55
2023/12/14 04:12:07;;;;;;;2.40;1.40;;;;;;;17.86;56.95;101038.47;10452202;28;20032;-56
2023/12/14 04:17:08;;;;;;;2.40;1.10;;;;;;;17.98;56.98;101038.88;10423711;28;20544;-55
2023/12/14 04:22:08;;;;;;;2.80;1.02;;;;;;;18.09;56.17;101039.59;10451828;28;20283;-55
2023/12/14 04:27:08;;;;;;;2.73;1.43;;;;;;;18.15;56.09;101059.13;10451373;28;20025;-56
2023/12/14 04:32:09;;;;;;;2.75;1.27;;;;;;;18.19;55.93;101073.56;10441148;28;20349;-56
2023/12/14 04:37:09;;;;;;;1.85;1.40;;;;;;;18.27;56.50;101092.56;10451160;28;20025;-56
2023/12/14 04:42:10;;;;;;;3.10;1.40;;;;;;;18.30;55.90;101107.28;10449328;28;20040;-55
2023/12/14 04:47:10;;;;;;;2.00;1.17;;;;;;;18.41;55.30;101103.41;10448768;28;20531;-53
2023/12/14 04:52:10;;;;;;;2.17;1.33;;;;;;;18.46;55.72;101118.66;10449400;28;20278;-54
2023/12/14 04:57:11;;;;;;;2.20;1.27;;;;;;;18.52;55.36;101121.03;10447613;28;20639;-53
2023/12/14 05:02:11;;;;;;;2.50;1.27;;;;;;;18.55;55.33;101139.25;10446916;28;20287;-56
2023/12/14 05:07:11;;;;;;;1.23;0.90;;;;;;;18.55;55.17;101150.00;10446598;28;20276;-56
2023/12/14 05:12:12;;;;;;;1.70;0.93;;;;;;;18.51;55.25;101166.97;10449419;28;20519;-55
2023/12/14 05:17:12;;;;;;;2.47;1.23;;;;;;;18.45;56.02;101171.56;10443950;28;20291;-55
2023/12/14 05:22:12;;;;;;;2.03;1.13;;;;;;;18.44;55.31;101183.38;10445917;28;20056;-56
2023/12/14 05:27:13;;;;;;;1.45;1.05;;;;;;;18.46;55.49;101189.28;10439585;28;20279;-53
2023/12/14 05:32:13;;;;;;;2.67;1.40;;;;;;;18.35;55.62;101198.50;10448160;28;20052;-56
2023/12/14 05:37:13;;;;;;;1.43;1.20;;;;;;;18.34;56.37;101207.63;10447284;28;20017;-55
2023/12/14 05:42:16;;;;;;;2.20;1.10;;;;;;;18.27;55.64;101223.28;10452139;28;20024;-55
2023/12/14 05:47:17;;;;;;;4.35;2.10;;;;;;;18.20;56.61;101234.34;10439204;28;20112;-53
2023/12/14 05:52:17;;;;;;;2.47;1.20;;;;;;;18.22;57.63;101248.25;10439797;28;20055;-55
2023/12/14 05:57:18;;;;;;;5.75;1.30;;;;;;;18.24;57.68;101267.59;10457206;28;20294;-54
2023/12/14 06:02:18;;;;;;;5.47;1.93;;;;;;;18.35;56.63;101279.03;10451295;28;20028;-55
2023/12/14 06:07:18;;;;;;;6.30;1.88;;;;;;;18.31;58.74;101275.31;10454644;28;20293;-53
2023/12/14 06:12:19;;;;;;;8.47;1.57;;;;;;;18.27;58.92;101280.47;10456807;28;20036;-54
2023/12/14 06:17:19;;;;;;;7.23;2.57;;;;;;;18.22;58.58;101275.09;10456471;28;20288;-54
2023/12/14 06:22:19;;;;;;;11.20;2.17;;;;;;;18.11;58.51;101290.50;10456647;28;20360;-53
2023/12/14 06:27:22;;;;;;;6.00;1.90;;;;;;;18.14;59.01;101299.06;10455966;28;20416;-54
2023/12/14 06:32:22;;;;;;;10.73;2.55;;;;;;;18.15;59.36;101319.47;10447177;28;20299;-54
2023/12/14 06:37:23;;;;;;;11.30;2.20;;;;;;;18.03;60.08;101328.66;10454746;28;20033;-53
2023/12/14 06:42:23;;;;;;;9.70;3.67;;;;;;;18.01;60.08;101346.13;10455029;28;20052;-50
2023/12/14 06:47:23;;;;;;;5.83;1.73;;;;;;;18.05;59.43;101342.59;10455423;28;20286;-55
2023/12/14 06:52:24;;;;;;;13.80;2.30;;;;;;;17.97;59.19;101337.78;10454709;28;20318;-53
2023/12/14 06:57:24;;;;;;;12.47;1.80;;;;;;;17.90;60.67;101350.72;10448962;28;20465;-54
2023/12/14 07:02:25;;;;;;;10.32;2.13;;;;;;;17.91;60.31;101365.75;10454237;28;20087;-52
2023/12/14 07:07:25;;;;;;;10.37;2.63;;;;;;;17.87;59.50;101369.22;10454090;28;20021;-54
2023/12/14 07:12:25;;;;;;;6.43;2.42;;;;;;;17.71;59.44;101385.38;10454335;28;20307;-55
2023/12/14 07:17:26;;;;;;;6.37;1.93;;;;;;;17.62;59.94;101407.63;10452145;28;20025;-54
2023/12/14 07:22:26;;;;;;;7.82;1.92;;;;;;;17.56;60.38;101404.16;10451293;28;20287;-53
2023/12/14 07:27:27;;;;;;;22.83;2.20;;;;;;;17.46;59.91;101409.56;10450932;28;20396;-54
2023/12/14 07:32:27;;;;;;;5.55;2.03;;;;;;;17.37;60.50;101419.22;10440991;28;20303;-55
2023/12/14 07:37:27;;;;;;;6.90;2.20;;;;;;;17.27;59.45;101428.06;10450447;28;20033;-53
2023/12/14 07:42:28;;;;;;;6.97;2.53;;;;;;;17.20;59.57;101431.03;10450406;28;20318;-54
2023/12/14 07:47:28;;;;;;;4.78;1.52;;;;;;;17.14;59.97;101450.03;10449887;28;20868;-53
2023/12/14 07:52:29;;;;;;;3.90;1.53;;;;;;;17.06;60.19;101459.44;10448790;28;20028;-53
2023/12/14 07:57:29;;;;;;;4.90;1.60;;;;;;;17.00;60.86;101460.47;10444591;28;20287;-54
2023/12/14 08:02:29;;;;;;;5.10;1.37;;;;;;;16.96;59.77;101475.50;10446431;28;20271;-54
2023/12/14 08:07:31;;;;;;;6.37;1.43;;;;;;;16.91;60.46;101491.53;10447641;28;20298;-54
2023/12/14 08:12:32;;;;;;;5.68;1.63;;;;;;;16.87;60.59;101485.91;10451132;28;20650;-55
2023/12/14 08:17:32;;;;;;;3.72;1.63;;;;;;;16.81;60.28;101496.88;10448453;28;20028;-54
2023/12/14 08:22:33;;;;;;;3.60;2.03;;;;;;;16.77;59.99;101510.00;10449892;28;20526;-55
2023/12/14 08:27:33;;;;;;;3.93;1.70;;;;;;;16.73;60.12;101508.91;10449747;28;20282;-55
2023/12/14 08:32:33;;;;;;;3.47;1.37;;;;;;;16.69;60.71;101515.03;10448191;28;20314;-55
2023/12/14 08:37:35;;;;;;;3.45;1.55;;;;;;;16.65;61.18;101534.28;10448376;28;20299;-55
2023/12/14 08:42:35;;;;;;;5.18;1.38;;;;;;;16.61;60.20;101541.25;10432372;28;20419;-53
2023/12/14 08:47:36;;;;;;;2.83;1.20;;;;;;;16.57;60.65;101552.72;10449581;28;20063;-54
2023/12/14 08:52:36;;;;;;;3.70;1.70;;;;;;;16.53;60.96;101554.31;10449933;28;20641;-55
2023/12/14 08:57:37;;;;;;;4.35;1.90;;;;;;;16.48;60.20;101573.84;10448796;28;20290;-54
2023/12/14 09:02:37;;;;;;;3.33;1.50;;;;;;;16.46;60.44;101575.19;10450069;28;20029;-56
2023/12/14 09:07:37;;;;;;;3.85;1.92;;;;;;;16.40;60.19;101566.31;10449222;28;20353;-55
2023/12/14 09:12:38;;;;;;;2.90;1.30;;;;;;;16.36;59.68;101576.72;10449236;28;20059;-55
2023/12/14 09:17:38;;;;;;;2.90;1.42;;;;;;;16.35;61.21;101593.84;10448719;28;21178;-54
2023/12/14 09:22:39;;;;;;;3.40;1.52;;;;;;;16.32;59.49;101591.69;10449161;28;20025;-54
2023/12/14 09:27:39;;;;;;;2.07;1.43;;;;;;;16.29;59.72;101600.22;10447213;28;20036;-53
2023/12/14 09:32:39;;;;;;;1.90;1.20;;;;;;;16.27;60.39;101614.94;10438940;28;20306;-55
2023/12/14 09:37:41;;;;;;;2.92;1.45;;;;;;;16.26;59.80;101624.84;10448514;28;20303;-55
2023/12/14 09:42:41;;;;;;;3.08;1.38;;;;;;;16.23;59.47;101636.06;10431012;28;20062;-53
2023/12/14 09:47:42;;;;;;;2.15;1.08;;;;;;;16.19;60.43;101642.97;10430409;28;20053;-53
2023/12/14 09:52:47;;;;;;;2.53;1.35;;;;;;;16.19;60.50;101652.88;10448097;28;20028;-53
2023/12/14 09:57:47;;;;;;;4.10;1.35;;;;;;;16.16;60.25;101651.53;10448081;28;20095;-55
2023/12/14 10:02:48;;;;;;;1.77;1.10;;;;;;;16.14;60.63;101658.19;10429930;28;20028;-55
2023/12/14 10:07:48;;;;;;;2.27;1.13;;;;;;;16.13;59.88;101673.44;10448243;28;20280;-55
2023/12/14 10:12:55;;;;;;;2.90;1.48;;;;;;;16.12;60.93;101682.53;10447409;28;20286;-54
2023/12/14 10:17:55;;;;;;;2.08;1.23;;;;;;;16.11;60.74;101691.63;10447922;28;20035;-54
2023/12/14 10:22:55;;;;;;;4.43;1.50;;;;;;;16.07;60.76;101695.84;10447352;28;20025;-54
2023/12/14 10:27:57;;;;;;;2.90;2.00;;;;;;;16.06;59.88;101699.59;10450204;28;20025;-55
2023/12/14 10:32:58;;;;;;;2.05;1.13;;;;;;;16.03;61.08;101708.94;10444714;28;20099;-55
2023/12/14 10:38:02;;;;;;;2.03;0.98;;;;;;;16.02;60.98;101710.00;10454449;28;20465;-55
2023/12/14 10:43:03;;;;;;;3.50;1.83;;;;;;;16.00;59.44;101709.44;10454320;28;20029;-53
2023/12/14 10:48:04;;;;;;;2.95;0.95;;;;;;;15.99;60.67;101705.16;10454774;28;20037;-54
2023/12/14 10:53:05;;;;;;;3.50;1.30;;;;;;;15.98;59.92;101698.19;10419755;28;20055;-55
2023/12/14 10:58:08;;;;;;;3.17;1.83;;;;;;;15.97;59.14;101709.13;10454538;28;20029;-54
2023/12/14 11:03:13;;;;;;;2.03;1.20;;;;;;;15.96;59.52;101716.34;10435916;28;20033;-54
2023/12/14 11:08:14;;;;;;;1.90;1.05;;;;;;;15.95;60.07;101732.66;10454137;28;20080;-55
2023/12/14 11:13:17;;;;;;;1.85;1.20;;;;;;;15.93;60.16;101732.91;10453093;28;20021;-55
2023/12/14 11:18:17;;;;;;;3.47;1.35;;;;;;;15.93;60.36;101737.44;10453574;28;20036;-54
2023/12/14 11:23:26;;;;;;;2.22;1.40;;;;;;;15.91;59.87;101742.25;10452964;28;20568;-54
2023/12/14 11:28:27;;;;;;;1.97;1.17;;;;;;;15.89;60.47;101750.53;10434793;28;20484;-54
2023/12/14 11:33:28;;;;;;;1.65;1.23;;;;;;;15.88;59.38;101746.25;10443318;28;20037;-54
2023/12/14 11:38:29;;;;;;;2.10;1.00;;;;;;;15.87;60.56;101762.53;10452523;28;20047;-55
2023/12/14 11:43:30;;;;;;;1.45;1.10;;;;;;;15.85;59.58;101767.31;10451839;28;20021;-55
2023/12/14 11:48:30;;;;;;;1.95;1.02;;;;;;;15.84;59.51;101771.84;10434427;28;20555;-54
2023/12/14 11:53:31;;;;;;;1.93;1.10;;;;;;;15.84;59.85;101777.19;10451655;28;20166;-53
2023/12/14 11:58:34;;;;;;;3.17;1.40;;;;;;;15.85;59.59;101773.47;10451789;28;20346;-54
2023/12/14 12:03:34;;;;;;;2.22;1.20;;;;;;;15.84;59.83;101777.19;10451030;28;20071;-55
2023/12/14 12:08:41;;;;;;;2.00;1.17;;;;;;;15.86;59.83;101772.41;10451991;28;20075;-53
2023/12/14 12:13:42;;;;;;;1.98;1.25;;;;;;;15.86;60.40;101771.59;10432779;28;20055;-55
2023/12/14 12:18:42;;;;;;;1.97;1.03;;;;;;;15.85;59.39;101767.31;10451234;28;20472;-55
2023/12/14 12:23:42;;;;;;;1.83;1.00;;;;;;;15.85;60.57;101770.78;10450589;28;20275;-55
2023/12/14 12:28:43;;;;;;;1.83;1.10;;;;;;;15.84;59.29;101776.41;10450745;28;20353;-54
2023/12/14 12:33:43;;;;;;;2.37;1.67;;;;;;;15.83;59.20;101780.94;10450002;28;20472;-54
2023/12/14 12:38:43;;;;;;;2.20;1.88;;;;;;;15.82;59.90;101789.22;10450647;28;20279;-55
2023/12/14 12:43:44;;;;;;;1.93;1.13;;;;;;;15.81;59.37;101791.09;10450409;28;20117;-54
2023/12/14 12:48:46;;;;;;;4.43;1.63;;;;;;;15.79;59.41;101802.03;10450175;28;20290;-54
2023/12/14 12:53:48;;;;;;;2.53;1.42;;;;;;;15.78;59.85;101805.78;10448586;28;20299;-55
2023/12/14 12:58:49;;;;;;;3.20;1.20;;;;;;;15.77;59.34;101809.50;10449749;28;20480;-55
2023/12/14 13:03:53;;;;;;;2.53;1.48;;;;;;;15.75;60.32;101808.94;10448935;28;20283;-54
2023/12/14 13:08:53;;;;;;;1.95;1.20;;;;;;;15.74;59.40;101818.00;10449663;28;20021;-54
2023/12/14 13:13:54;;;;;;;2.72;1.35;;;;;;;15.73;58.93;101810.22;10448870;28;20464;-53
2023/12/14 13:18:54;;;;;;;2.13;1.33;;;;;;;15.73;59.17;101824.41;10449194;28;20511;-56
2023/12/14 13:23:56;;;;;;;1.83;1.20;;;;;;;15.72;59.47;101828.13;10446970;28;20311;-54
2023/12/14 13:28:56;;;;;;;2.17;1.15;;;;;;;15.71;60.23;101834.53;10447587;28;20325;-55
2023/12/14 13:33:57;;;;;;;3.10;1.40;;;;;;;15.72;59.80;101840.69;10439186;28;20346;-53
2023/12/14 13:38:57;;;;;;;2.22;1.45;;;;;;;15.70;59.16;101837.47;10448916;28;20283;-54
2023/12/14 13:43:57;;;;;;;1.70;1.27;;;;;;;15.68;59.43;101839.59;10447880;28;20021;-54
2023/12/14 13:48:58;;;;;;;2.40;1.30;;;;;;;15.67;60.23;101844.13;10448630;28;20028;-54
2023/12/14 13:53:58;;;;;;;2.65;1.10;;;;;;;15.66;60.05;101853.22;10447802;28;20291;-54
2023/12/14 13:58:58;;;;;;;2.23;1.60;;;;;;;15.65;60.27;101877.53;10448337;28;20040;-54
2023/12/14 14:03:59;;;;;;;1.50;1.00;;;;;;;15.65;60.27;101872.19;10452589;28;20271;-55
2023/12/14 14:08:59;;;;;;;2.83;1.60;;;;;;;15.63;59.81;101877.78;10456168;28;20601;-54
2023/12/14 14:13:59;;;;;;;2.20;1.40;;;;;;;15.63;59.99;101895.69;10437477;28;20375;-55
2023/12/14 14:19:00;;;;;;;2.23;1.23;;;;;;;15.61;59.74;101903.94;10456019;28;20329;-53
2023/12/14 14:24:00;;;;;;;1.90;1.17;;;;;;;15.61;58.88;101909.28;10455639;28;20287;-53
2023/12/14 14:29:01;;;;;;;2.63;1.40;;;;;;;15.62;60.06;101918.91;10453622;28;20314;-54
2023/12/14 14:34:02;;;;;;;1.98;1.38;;;;;;;15.60;59.69;101922.88;10447138;28;20766;-55
2023/12/14 14:39:04;;;;;;;2.33;1.30;;;;;;;15.59;59.99;101919.38;10436894;28;20021;-54
2023/12/14 14:44:04;;;;;;;1.55;1.25;;;;;;;15.69;59.33;101937.47;10454657;28;20033;-55
2023/12/14 14:49:05;;;;;;;2.85;1.27;;;;;;;16.02;58.92;101937.38;10455062;28;20040;-54
2023/12/14 14:54:05;;;;;;;2.88;1.58;;;;;;;16.53;57.74;101943.31;10453793;28;20456;-54
2023/12/14 14:59:07;;;;;;;5.77;1.50;;;;;;;16.99;56.17;101953.72;10454613;28;20028;-53
2023/12/14 15:04:07;;;;;;;2.40;0.80;;;;;;;17.33;54.00;101971.16;10453903;28;20272;-54
2023/12/14 15:09:07;;;;;;;1.85;1.00;;;;;;;17.56;53.82;101985.28;10453898;28;20649;-54
2023/12/14 15:14:08;;;;;;;1.95;1.08;;;;;;;17.74;53.15;101980.31;10452500;28;20525;-55
2023/12/14 15:19:09;;;;;;;2.50;1.10;;;;;;;17.87;53.35;101986.31;10453580;28;20082;-54
2023/12/14 15:24:10;;;;;;;2.10;0.80;;;;;;;17.99;54.19;101992.28;10452841;28;20282;-55
2023/12/14 15:29:10;;;;;;;3.63;0.70;;;;;;;18.06;52.62;102007.09;10432196;28;20044;-55
2023/12/14 15:34:10;;;;;;;2.33;0.93;;;;;;;18.17;52.80;101996.41;10446350;28;20039;-53
2023/12/14 15:39:11;;;;;;;1.13;0.67;;;;;;;18.24;51.90;102005.03;10453117;28;20311;-53
2023/12/14 15:44:11;;;;;;;1.63;0.82;;;;;;;18.28;52.48;102004.25;10452396;28;20480;-54
2023/12/14 15:49:11;;;;;;;1.33;1.03;;;;;;;18.32;52.04;102007.19;10452300;28;20465;-55
2023/12/14 15:54:12;;;;;;;1.13;0.60;;;;;;;18.35;52.79;102018.25;10451650;28;20286;-55
2023/12/14 15:59:12;;;;;;;1.42;0.80;;;;;;;18.39;52.30;102029.25;10452001;28;20031;-55
2023/12/14 16:04:13;;;;;;;1.75;0.90;;;;;;;18.36;52.12;102029.78;10451197;28;20032;-54
2023/12/14 16:09:13;;;;;;;1.45;0.82;;;;;;;18.32;51.92;102026.81;10449893;28;20455;-55
2023/12/14 16:14:13;;;;;;;1.33;0.87;;;;;;;18.25;53.06;102049.59;10448598;28;20025;-53
2023/12/14 16:19:14;;;;;;;1.63;1.00;;;;;;;18.18;53.02;102060.56;10449080;28;20777;-55
2023/12/14 16:24:14;;;;;;;1.83;1.00;;;;;;;18.18;53.34;102062.44;10447853;28;20418;-55
2023/12/14 16:29:14;;;;;;;1.90;1.02;;;;;;;18.16;52.88;102060.03;10445716;28;20378;-55
2023/12/14 16:34:15;;;;;;;1.50;0.63;;;;;;;18.15;53.40;102073.72;10424723;28;20017;-56
2023/12/14 16:39:16;;;;;;;1.87;0.73;;;;;;;18.11;52.89;102079.59;10449104;28;20032;-55
2023/12/14 16:44:16;;;;;;;2.20;1.00;;;;;;;18.12;53.23;102085.78;10447998;28;20285;-56
2023/12/14 16:49:16;;;;;;;10.98;1.83;;;;;;;18.11;55.15;102090.34;10450640;28;20527;-54
2023/12/14 16:54:17;;;;;;;11.90;3.03;;;;;;;18.25;55.40;102097.94;10447346;28;20021;-51
2023/12/14 16:59:17;;;;;;;19.77;3.07;;;;;;;18.31;54.74;102107.63;10447823;28;20287;-54
2023/12/14 17:04:17;;;;;;;12.90;2.63;;;;;;;18.26;55.93;102107.59;10447176;28;20814;-51
2023/12/14 17:09:19;;;;;;;9.30;1.90;;;;;;;18.27;56.10;102115.41;10447332;28;20032;-53
2023/12/14 17:14:20;;;;;;;14.10;2.33;;;;;;;18.36;55.94;102121.91;10449512;28;21002;-51
2023/12/14 17:19:20;;;;;;;10.27;2.00;;;;;;;18.20;58.24;102119.38;10449778;28;20036;-54
2023/12/14 17:24:20;;;;;;;6.03;2.08;;;;;;;18.18;58.21;102129.56;10449406;28;20021;-53
2023/12/14 17:29:21;;;;;;;10.00;2.93;;;;;;;18.16;58.58;102131.69;10445255;28;20053;-47
2023/12/14 17:34:23;;;;;;;11.00;2.10;;;;;;;18.11;59.37;102137.81;10444464;28;20036;-53
2023/12/14 17:39:24;;;;;;;14.15;2.40;;;;;;;18.04;58.84;102140.75;10461150;28;20029;-55
2023/12/14 17:44:24;;;;;;;9.30;2.47;;;;;;;18.03;58.72;102139.13;10456069;28;20029;-53
2023/12/14 17:49:24;;;;;;;9.87;3.10;;;;;;;18.03;58.23;102130.25;10447739;28;20033;-56
2023/12/14 17:54:24;;;;;;;14.83;2.77;;;;;;;17.96;60.25;102149.25;10458996;28;20639;-53
2023/12/14 17:59:25;;;;;;;13.93;2.57;;;;;;;17.91;58.79;102141.19;10459954;28;20082;-54
2023/12/14 18:04:25;;;;;;;11.93;2.97;;;;;;;17.91;58.38;102143.84;10460529;28;20479;-57
2023/12/14 18:09:26;;;;;;;6.97;2.03;;;;;;;17.82;58.54;102148.88;10444771;28;20314;-56
2023/12/14 18:14:27;;;;;;;11.45;2.28;;;;;;;17.74;59.17;102143.97;10459068;28;20032;-54
2023/12/14 18:19:29;;;;;;;5.80;1.90;;;;;;;17.72;58.65;102148.78;10458759;28;20442;-53
2023/12/14 18:24:29;;;;;;;7.72;2.58;;;;;;;17.71;58.23;102155.22;10461043;28;20449;-56
2023/12/14 18:29:29;;;;;;;6.55;2.33;;;;;;;17.80;58.11;102168.97;10457081;28;20060;-55
2023/12/14 18:34:30;;;;;;;9.83;1.90;;;;;;;17.83;58.08;102176.50;10457959;28;20055;-55
2023/12/14 18:39:30;;;;;;;6.60;1.80;;;;;;;17.80;57.99;102185.09;10462649;28;20040;-55
2023/12/14 18:44:30;;;;;;;6.50;1.80;;;;;;;17.80;58.59;102182.41;10462154;28;20048;-56
2023/12/14 18:49:31;;;;;;;4.53;2.00;;;;;;;17.79;58.50;102195.00;10457134;28;20361;-57
2023/12/14 18:54:31;;;;;;;6.03;1.90;;;;;;;17.77;59.61;102197.13;10455706;28;20294;-55
2023/12/14 18:59:31;;;;;;;7.32;2.38;;;;;;;17.66;59.00;102208.00;10454797;28;20287;-54
2023/12/14 19:04:32;;;;;;;12.48;2.60;;;;;;;17.68;58.50;102214.72;10455071;28;20453;-54
2023/12/14 19:09:32;;;;;;;7.90;2.40;;;;;;;17.69;58.46;102220.91;10452043;28;20443;-53
2023/12/14 19:14:32;;;;;;;7.27;2.23;;;;;;;17.62;59.36;102237.16;10453947;28;20294;-54
2023/12/14 19:19:33;;;;;;;8.67;2.40;;;;;;;17.65;59.29;102246.59;10454242;28;20294;-53
2023/12/14 19:24:33;;;;;;;7.83;2.30;;;;;;;17.66;59.24;102253.59;10454410;28;20017;-53
2023/12/14 19:29:35;;;;;;;6.33;2.03;;;;;;;17.60;58.15;102251.91;10447824;28;20379;-55
2023/12/14 19:34:35;;;;;;;4.28;1.75;;;;;;;17.61;59.09;102257.00;10450411;28;20301;-55
2023/12/14 19:39:36;;;;;;;4.30;1.90;;;;;;;17.63;59.43;102265.59;10451986;28;20028;-53
2023/12/14 19:44:36;;;;;;;6.43;2.20;;;;;;;17.63;58.49;102262.94;10447819;28;20279;-54
2023/12/14 19:49:36;;;;;;;7.67;2.13;;;;;;;17.62;58.35;102282.75;10450284;28;20275;-54
2023/12/14 19:54:37;;;;;;;6.35;1.77;;;;;;;17.64;57.85;102282.50;10448901;28;20299;-54
2023/12/14 19:59:39;;;;;;;6.80;1.92;;;;;;;17.63;59.09;102284.38;10448181;28;20017;-54
2023/12/14 20:04:42;;;;;;;5.97;2.70;;;;;;;17.59;57.79;102295.88;10447243;28;20845;-53
2023/12/14 20:09:42;;;;;;;5.28;2.25;;;;;;;17.53;58.32;102297.69;10440600;28;20476;-52
2023/12/14 20:14:43;;;;;;;5.68;1.70;;;;;;;17.46;58.00;102300.56;10443565;28;20099;-54
2023/12/14 20:19:43;;;;;;;3.63;1.45;;;;;;;17.37;59.16;102299.34;10430873;28;20036;-53
2023/12/14 20:24:46;;;;;;;3.83;1.93;;;;;;;17.31;59.17;102300.38;10449659;28;20071;-54
2023/12/14 20:29:47;;;;;;;5.18;2.00;;;;;;;17.20;60.23;102302.09;10442552;28;20292;-51
2023/12/14 20:34:47;;;;;;;5.03;2.10;;;;;;;17.10;60.38;102314.53;10449701;28;20020;-53
2023/12/14 20:39:47;;;;;;;3.43;1.80;;;;;;;17.05;60.37;102322.50;10450373;28;20314;-54
2023/12/14 20:44:48;;;;;;;4.20;2.20;;;;;;;16.99;59.64;102315.44;10451141;28;20279;-53
2023/12/14 20:49:48;;;;;;;3.85;2.35;;;;;;;16.95;60.45;102325.84;10450645;28;20310;-52
2023/12/14 20:54:48;;;;;;;5.68;2.75;;;;;;;16.89;59.65;102327.63;10450821;28;20055;-52
2023/12/14 20:59:49;;;;;;;4.80;1.95;;;;;;;16.84;60.44;102324.88;10450391;28;20036;-51
2023/12/14 21:04:49;;;;;;;3.37;2.07;;;;;;;16.79;59.67;102335.50;10450601;28;20021;-54
2023/12/14 21:09:49;;;;;;;5.40;2.53;;;;;;;16.76;59.61;102343.22;10449704;28;20283;-53
2023/12/14 21:14:51;;;;;;;4.25;2.05;;;;;;;16.70;60.05;102350.38;10449871;28;20283;-53
2023/12/14 21:19:52;;;;;;;2.78;1.95;;;;;;;16.69;60.82;102364.78;10449610;28;20028;-52
2023/12/14 21:24:59;;;;;;;4.53;2.17;;;;;;;16.63;61.06;102363.88;10450086;28;20021;-53
2023/12/14 21:30:00;;;;;;;3.92;2.25;;;;;;;16.59;60.90;102360.06;10449186;28;20045;-51
2023/12/14 21:35:01;;;;;;;3.42;2.05;;;;;;;16.56;60.59;102343.66;10447649;28;20040;-54
2023/12/14 21:40:01;;;;;;;4.18;1.70;;;;;;;16.53;60.01;102350.31;10449144;28;20029;-53
2023/12/14 21:45:03;;;;;;;6.10;2.33;;;;;;;16.48;61.00;102357.47;10449027;28;20044;-50
2023/12/14 21:50:04;;;;;;;3.65;2.20;;;;;;;16.43;60.43;102358.16;10449399;28;20032;-50
2023/12/14 21:55:04;;;;;;;5.07;2.25;;;;;;;16.39;61.48;102362.38;10449217;28;20033;-54
2023/12/14 22:00:06;;;;;;;4.03;1.73;;;;;;;16.34;60.48;102360.44;10449202;28;20032;-52
2023/12/14 22:05:06;;;;;;;3.15;1.98;;;;;;;16.32;60.03;102361.72;10448973;28;20108;-52
2023/12/14 22:10:09;;;;;;;3.47;1.73;;;;;;;16.29;61.56;102373.72;10448489;28;20491;-54
2023/12/14 22:15:10;;;;;;;4.22;2.00;;;;;;;16.27;60.87;102369.66;10448786;28;20029;-54
2023/12/14 22:20:11;;;;;;;3.15;2.05;;;;;;;16.23;60.52;102374.69;10447590;28;20090;-50
2023/12/14 22:25:11;;;;;;;2.95;2.00;;;;;;;16.22;60.43;102382.91;10453156;28;20534;-53
2023/12/14 22:30:11;;;;;;;3.30;2.07;;;;;;;16.20;60.89;102393.06;10455435;28;20044;-53
2023/12/14 22:35:12;;;;;;;3.50;1.65;;;;;;;16.16;61.09;102398.09;10456051;28;20295;-54
2023/12/14 22:40:13;;;;;;;4.25;1.45;;;;;;;16.15;61.06;102404.50;10455503;28;20070;-53
2023/12/14 22:45:13;;;;;;;3.13;1.75;;;;;;;16.13;60.19;102405.78;10455958;28;20021;-53
2023/12/14 22:50:13;;;;;;;4.47;1.93;;;;;;;16.11;60.14;102399.88;10455382;28;20021;-51
2023/12/14 22:55:14;;;;;;;3.78;2.03;;;;;;;16.07;60.22;102416.38;10455423;28;20283;-53
2023/12/14 23:00:21;;;;;;;2.42;1.63;;;;;;;16.05;60.76;102402.41;10436745;28;20027;-51